createdAt,value
2023-02-22T00:00:02.540Z,6.8
2023-02-22T00:05:02.444Z,6.87
2023-02-22T00:10:02.962Z,6.92
2023-02-22T00:15:03.096Z,6.96
2023-02-22T00:20:02.859Z,7
2023-02-22T00:25:03.095Z,7.02
2023-02-22T00:30:02.878Z,7
2023-02-22T00:35:02.477Z,7
2023-02-22T00:40:02.273Z,7.04
2023-02-22T00:45:03.120Z,7.05
2023-02-22T00:50:02.829Z,7.01
2023-02-22T00:55:03.030Z,7.13
2023-02-22T01:00:02.288Z,7.22
2023-02-22T01:05:02.915Z,7.2
2023-02-22T01:10:02.994Z,7.2
2023-02-22T01:15:02.715Z,7.18
2023-02-22T01:20:02.471Z,7.16
2023-02-22T01:25:02.271Z,7.14
2023-02-22T01:30:03.075Z,7.12
2023-02-22T01:35:02.747Z,7.09
2023-02-22T01:40:02.990Z,7.05
2023-02-22T01:45:02.670Z,7.03
2023-02-22T01:50:02.357Z,7
2023-02-22T01:55:04.251Z,6.99
2023-02-22T02:00:02.914Z,6.98
2023-02-22T02:05:02.947Z,6.95
2023-02-22T02:10:02.966Z,6.93
2023-02-22T02:15:02.938Z,6.94
2023-02-22T02:20:02.623Z,6.95
2023-02-22T02:25:02.393Z,6.96
2023-02-22T02:30:03.115Z,6.95
2023-02-22T02:35:02.906Z,6.87
2023-02-22T02:40:02.929Z,6.81
2023-02-22T02:45:02.667Z,6.61
2023-02-22T02:50:02.267Z,6.54
2023-02-22T02:55:03.046Z,6.48
2023-02-22T03:00:02.286Z,6.43
2023-02-22T03:05:03.094Z,6.37
2023-02-22T03:10:02.852Z,6.32
2023-02-22T03:15:02.626Z,6.3
2023-02-22T03:20:02.380Z,6.26
2023-02-22T03:25:03.011Z,6.25
2023-02-22T03:30:02.767Z,6.22
2023-02-22T03:35:02.424Z,6.2
2023-02-22T03:40:02.197Z,6.19
2023-02-22T03:45:03.204Z,6.18
2023-02-22T03:50:02.911Z,6.17
2023-02-22T03:55:03.703Z,6.18
2023-02-22T04:00:02.905Z,6.17
2023-02-22T04:05:02.559Z,6.17
2023-02-22T04:10:02.342Z,6.14
2023-02-22T04:15:02.271Z,6.12
2023-02-22T04:20:02.946Z,6.09
2023-02-22T04:25:02.881Z,6.05
2023-02-22T04:30:02.626Z,6.05
2023-02-22T04:35:02.767Z,6.06
2023-02-22T04:40:02.538Z,6.05
2023-02-22T04:45:02.299Z,6.03
2023-02-22T04:50:02.252Z,6.01
2023-02-22T04:55:03.542Z,6
2023-02-22T05:00:02.217Z,5.99
2023-02-22T05:05:02.369Z,5.99
2023-02-22T05:10:03.177Z,5.99
2023-02-22T05:15:02.452Z,6
2023-02-22T05:20:02.258Z,5.94
2023-02-22T05:25:03.167Z,5.92
2023-02-22T05:30:03.103Z,5.94
2023-02-22T05:35:02.750Z,5.95
2023-02-22T05:40:02.501Z,5.96
2023-02-22T05:45:03.217Z,5.98
2023-02-22T05:50:02.845Z,5.99
2023-02-22T05:55:03.618Z,6.02
2023-02-22T06:00:02.347Z,6.03
2023-02-22T06:05:03.117Z,6.01
2023-02-22T06:10:02.840Z,6.01
2023-02-22T06:15:02.523Z,6.02
2023-02-22T06:20:02.550Z,6.03
2023-02-22T06:25:02.987Z,6.04
2023-02-22T06:30:02.942Z,6.04
2023-02-22T06:35:02.601Z,6.06
2023-02-22T06:40:05.408Z,6.07
2023-02-22T06:45:02.644Z,6.07
2023-02-22T06:50:02.360Z,6.07
2023-02-22T06:55:03.796Z,6.1
2023-02-22T07:00:02.882Z,6.09
2023-02-22T07:05:02.627Z,6.1
2023-02-22T07:10:02.422Z,6.15
2023-02-22T07:15:03.224Z,6.17
2023-02-22T07:20:03.025Z,6.19
2023-02-22T07:25:02.786Z,6.21
2023-02-22T07:30:02.835Z,6.28
2023-02-22T07:35:03.168Z,6.27
2023-02-22T07:40:02.759Z,6.34
2023-02-22T07:45:02.841Z,6.35
2023-02-22T07:50:02.563Z,6.37
2023-02-22T07:55:03.517Z,6.34
2023-02-22T08:00:02.371Z,6.42
2023-02-22T08:05:03.095Z,6.47
2023-02-22T08:10:02.929Z,6.49
2023-02-22T08:15:02.684Z,6.6
2023-02-22T08:20:02.794Z,6.57
2023-02-22T08:25:02.768Z,6.61
2023-02-22T08:30:02.535Z,6.65
2023-02-22T08:35:02.250Z,6.69
2023-02-22T08:40:03.059Z,6.63
2023-02-22T08:45:02.926Z,6.66
2023-02-22T08:50:02.422Z,6.8
2023-02-22T08:55:03.579Z,6.79
2023-02-22T09:00:03.007Z,6.85
2023-02-22T09:05:02.900Z,6.92
2023-02-22T09:10:02.557Z,7.05
2023-02-22T09:15:02.323Z,7.17
2023-02-22T09:20:03.003Z,7.21
2023-02-22T09:25:11.596Z,7.37
2023-02-22T09:30:02.619Z,7.48
2023-02-22T09:35:02.266Z,7.5
2023-02-22T09:40:03.011Z,7.49
2023-02-22T09:45:02.687Z,7.61
2023-02-22T09:50:02.418Z,7.77
2023-02-22T09:55:03.615Z,7.74
2023-02-22T10:00:02.811Z,8
2023-02-22T10:05:02.573Z,7.77
2023-02-22T10:10:02.702Z,8.04
2023-02-22T10:15:02.461Z,8.13
2023-02-22T10:20:02.709Z,8.33
2023-02-22T10:25:02.296Z,8.55
2023-02-22T10:30:10.039Z,8.33
2023-02-22T10:35:02.281Z,8.41
2023-02-22T10:40:02.669Z,8.35
2023-02-22T10:45:02.512Z,8.49
2023-02-22T10:50:02.249Z,8.21
2023-02-22T10:55:15.898Z,8.32
2023-02-22T11:00:02.954Z,8.48
2023-02-22T11:05:02.781Z,8.58
2023-02-22T11:10:02.590Z,8.39
2023-02-22T11:15:02.704Z,8.35
2023-02-22T11:20:02.502Z,8.41
2023-02-22T11:25:03.354Z,8.93
2023-02-22T11:30:05.003Z,8.79
2023-02-22T11:35:08.897Z,8.76
2023-02-22T11:40:02.228Z,8.98
2023-02-22T11:45:02.975Z,8.81
2023-02-22T11:50:02.807Z,9.12
2023-02-22T11:55:03.465Z,9.09
2023-02-22T12:00:02.382Z,9.24
2023-02-22T12:05:02.289Z,9.05
2023-02-22T12:10:02.367Z,9.25
2023-02-22T12:15:02.244Z,9.07
2023-02-22T12:20:03.017Z,9.19
2023-02-22T12:25:09.649Z,9.25
2023-02-22T12:30:03.080Z,9.47
2023-02-22T12:35:02.827Z,9.5
2023-02-22T12:40:02.586Z,9.43
2023-02-22T12:45:02.349Z,9.23
2023-02-22T12:50:03.150Z,9.39
2023-02-22T12:55:04.195Z,9.56
2023-02-22T13:00:02.668Z,9.48
2023-02-22T13:05:02.822Z,9.59
2023-02-22T13:10:02.584Z,9.74
2023-02-22T13:15:02.465Z,9.83
2023-02-22T13:20:02.574Z,9.79
2023-02-22T13:25:02.442Z,9.77
2023-02-22T13:30:02.552Z,9.8
2023-02-22T13:35:02.653Z,9.67
2023-02-22T13:40:02.361Z,9.8
2023-02-22T13:45:03.015Z,9.66
2023-02-22T13:50:03.087Z,9.71
2023-02-22T13:55:03.420Z,9.79
2023-02-22T14:00:02.414Z,9.98
2023-02-22T14:05:03.274Z,9.9
2023-02-22T14:10:02.876Z,9.77
2023-02-22T14:15:02.614Z,9.81
2023-02-22T14:20:02.540Z,9.81
2023-02-22T14:25:02.657Z,9.8
2023-02-22T14:30:02.953Z,9.68
2023-02-22T14:35:02.800Z,9.54
2023-02-22T14:40:02.608Z,9.63
2023-02-22T14:45:02.381Z,9.53
2023-02-22T14:50:03.005Z,9.49
2023-02-22T14:55:03.546Z,9.46
2023-02-22T15:00:02.602Z,9.38
2023-02-22T15:05:03.163Z,9.33
2023-02-22T15:10:02.385Z,9.27
2023-02-22T15:15:02.612Z,9.2
2023-02-22T15:20:02.326Z,9.17
2023-02-22T15:25:02.241Z,9.14
2023-02-22T15:30:02.968Z,9.1
2023-02-22T15:35:02.268Z,9.05
2023-02-22T15:40:03.160Z,8.94
2023-02-22T15:45:02.943Z,8.95
2023-02-22T15:50:05.421Z,8.88
2023-02-22T15:55:02.969Z,8.79
2023-02-22T16:00:02.355Z,8.69
2023-02-22T16:05:03.018Z,8.58
2023-02-22T16:10:02.775Z,8.31
2023-02-22T16:15:03.268Z,8.26
2023-02-22T16:20:02.715Z,8.15
2023-02-22T16:25:02.396Z,8.09
2023-02-22T16:30:05.912Z,7.99
2023-02-22T16:35:02.411Z,7.82
2023-02-22T16:40:02.248Z,7.67
2023-02-22T16:45:02.996Z,7.58
2023-02-22T16:50:02.768Z,7.58
2023-02-22T16:55:03.826Z,7.48
2023-02-22T17:00:02.719Z,7.47
2023-02-22T17:05:02.296Z,7.39
2023-02-22T17:10:02.245Z,7.35
2023-02-22T17:15:03.128Z,7.29
2023-02-22T17:20:02.850Z,7.27
2023-02-22T17:25:02.774Z,7.2
2023-02-22T17:30:02.526Z,7.13
2023-02-22T17:35:02.339Z,7.07
2023-02-22T17:40:03.047Z,7.02
2023-02-22T17:45:02.771Z,7
2023-02-22T17:50:02.736Z,6.94
2023-02-22T17:55:03.183Z,6.9
2023-02-22T18:00:02.449Z,6.86
2023-02-22T18:05:02.562Z,6.74
2023-02-22T18:10:02.495Z,6.66
2023-02-22T18:15:02.482Z,6.65
2023-02-22T18:20:02.202Z,6.51
2023-02-22T18:25:03.061Z,6.54
2023-02-22T18:30:02.941Z,6.57
2023-02-22T18:35:02.832Z,6.56
2023-02-22T18:40:02.543Z,6.54
2023-02-22T18:45:02.379Z,6.46
2023-02-22T18:50:02.335Z,6.32
2023-02-22T18:55:04.021Z,6.24
2023-02-22T19:00:02.956Z,6.26
2023-02-22T19:05:02.593Z,6.27
2023-02-22T19:10:02.363Z,6.13
2023-02-22T19:15:03.236Z,6.08
2023-02-22T19:20:03.144Z,6
2023-02-22T19:25:02.238Z,5.99
2023-02-22T19:30:02.967Z,5.94
2023-02-22T19:35:02.778Z,5.86
2023-02-22T19:40:02.522Z,5.76
2023-02-22T19:45:02.547Z,5.77
2023-02-22T19:50:02.428Z,5.78
2023-02-22T19:55:03.100Z,5.7
2023-02-22T20:00:03.519Z,5.7
2023-02-22T20:05:02.840Z,5.7
2023-02-22T20:10:02.656Z,5.69
2023-02-22T20:15:02.435Z,5.71
2023-02-22T20:20:02.237Z,5.78
2023-02-22T20:25:02.393Z,5.75
2023-02-22T20:30:02.313Z,5.69
2023-02-22T20:35:03.116Z,5.57
2023-02-22T20:40:04.205Z,5.49
2023-02-22T20:45:02.620Z,5.43
2023-02-22T20:50:02.475Z,5.5
2023-02-22T20:55:03.263Z,5.45
2023-02-22T21:00:02.491Z,5.27
2023-02-22T21:05:03.165Z,5.25
2023-02-22T21:10:02.992Z,5.23
2023-02-22T21:15:02.820Z,5.12
2023-02-22T21:20:02.947Z,5.21
2023-02-22T21:25:02.716Z,5.1
2023-02-22T21:30:02.456Z,5.03
2023-02-22T21:35:02.216Z,4.95
2023-02-22T21:40:03.161Z,4.94
2023-02-22T21:45:03.139Z,4.99
2023-02-22T21:50:03.030Z,4.94
2023-02-22T21:55:03.526Z,4.91
2023-02-22T22:00:02.678Z,4.83
2023-02-22T22:05:02.325Z,4.76
2023-02-22T22:10:03.080Z,4.78
2023-02-22T22:15:02.932Z,4.84
2023-02-22T22:20:02.602Z,4.83
2023-02-22T22:25:02.573Z,4.78
2023-02-22T22:30:02.406Z,4.74
2023-02-22T22:35:03.138Z,4.76
2023-02-22T22:40:02.854Z,4.79
2023-02-22T22:45:02.533Z,4.75
2023-02-22T22:50:02.281Z,4.75
2023-02-22T22:55:03.651Z,4.79
2023-02-22T23:00:02.754Z,4.91
2023-02-22T23:05:02.788Z,4.84
2023-02-22T23:10:02.820Z,4.8
2023-02-22T23:15:02.424Z,4.72
2023-02-22T23:20:02.309Z,4.8
2023-02-22T23:25:02.398Z,4.75
2023-02-22T23:30:03.201Z,4.72
2023-02-22T23:35:02.794Z,4.71
2023-02-22T23:40:02.509Z,4.69
2023-02-22T23:45:02.530Z,4.58
2023-02-22T23:50:03.155Z,4.56
2023-02-22T23:55:04.139Z,4.53
